Webcam Rollhalt 06

Webcam Rollhalt 24

 

+++ FLUGPLATZFEST am 26. Juli 2020 von 10.00 – 18.00 Uhr. +++

Flugplatz - Wetter - Augsburg

[Quelle: ADDS]
METAR
EDMA 031620Z AUTO 32007KT 9999 // OVC071/// 11/M01 Q1016 =
EDMA 031400Z 0315/0324 27010KT 9999 FEW045 BECMG 0316/0318 34003KT
TAF
EDMA 031400Z 0315/0324 27010KT 9999 FEW045 BECMG 0316/0318 34003KT =
SR / SS: 04:50 / 17:51 UTC (Augsburg 2020-04-03)

Flugplatz - Wetter - Laupheim

[Quelle: ADDS]
METAR
ETHL 031620Z 33007KT 9999 FEW050 BKN060 10/M02 Q1016 BLU =
AMD ETHL 030900Z 0308/0317 23007KT 9999 NSW FEW060 CANCEL 1000
TAF
AMD ETHL 030900Z 0308/0317 23007KT 9999 NSW FEW060 CANCEL 1000 =
SR / SS: 04:54 / 17:55 UTC (Laupheim 2020-04-03)

Flugplatz - Wetter - Memmingen

[Quelle: ADDS]
METAR
EDJA 031620Z AUTO 34007KT 300V010 9999 // FEW063/// 10/M02 Q1016 =
EDJA 031400Z 0315/0324 30010KT CAVOK BECMG 0316/0318 VRB03KT
TAF
EDJA 031400Z 0315/0324 30010KT CAVOK BECMG 0316/0318 VRB03KT =
SR / SS: 04:52 / 17:52 UTC (Memmingen 2020-04-03)

Flugplatz - Wetter - Neuburg/Donau

[Quelle: ADDS]
METAR
ETSN 031620Z 28008KT 9999 FEW050 BKN075 11/M01 Q1016 BLU =
ETSN 031600Z 0317/0402 27005KT 9999 NSW FEW020 SCT070 BY ETGL
TAF
ETSN 031600Z 0317/0402 27005KT 9999 NSW FEW020 SCT070 BY ETGL =
SR / SS: 04:48 / 17:49 UTC (Neuburg 2020-04-03)

Flugplatz - Wetter - Stuttgart

[Quelle: ADDS]
METAR
EDDS 031620Z 31011KT 9999 FEW041 10/01 Q1017 NOSIG =
EDDS 031100Z 0312/0412 28007KT 9999 FEW040 BECMG 0318/0321 VRB03KT PROB30 TEMPO 0402/0407 1000 BCFG BECMG 0410/0412 07005KT
TAF
EDDS 031100Z 0312/0412 28007KT 9999 FEW040 BECMG 0318/0321 VRB03KT PROB30 TEMPO 0402/0407 1000 BCFG BECMG 0410/0412 07005KT =
SR / SS: 04:56 / 17:57 UTC (Stuttgart 2020-04-03)

Flugplatz - Wetter - Niederstetten

[Quelle: ADDS]
METAR
ETHN 031620Z 28011KT 9999 FEW040 BKN065 09/M00 Q1016 BLU =
AMD ETHN 030929Z 0308/0317 25005KT 9999 NSW OVC060 PROB30 0310/0317 25010KT 7000 RA BKN020 CANCEL 1000Z
TAF
AMD ETHN 030929Z 0308/0317 25005KT 9999 NSW OVC060 PROB30 0310/0317 25010KT 7000 RA BKN020 CANCEL 1000Z =
SR / SS: 04:53 / 17:56 UTC (Niederstetten 2020-04-03)